sensor_id;sensor_type;location;lat;lon;timestamp;P1;durP1;ratioP1;P2;durP2;ratioP2
2404;SDS011;1213;43.206;27.922;2023-07-29T00:00:34;2.80;;;2.60;;
2404;SDS011;1213;43.206;27.922;2023-07-29T00:03:00;6.57;;;2.63;;
2404;SDS011;1213;43.206;27.922;2023-07-29T00:05:25;6.77;;;2.50;;
2404;SDS011;1213;43.206;27.922;2023-07-29T00:07:50;5.87;;;2.90;;
2404;SDS011;1213;43.206;27.922;2023-07-29T00:10:16;3.37;;;3.07;;
2404;SDS011;1213;43.206;27.922;2023-07-29T00:12:41;3.00;;;2.40;;
2404;SDS011;1213;43.206;27.922;2023-07-29T00:15:07;4.80;;;3.20;;
2404;SDS011;1213;43.206;27.922;2023-07-29T00:17:33;5.17;;;2.90;;
2404;SDS011;1213;43.206;27.922;2023-07-29T00:19:58;3.00;;;2.70;;
2404;SDS011;1213;43.206;27.922;2023-07-29T00:22:23;2.00;;;1.90;;
2404;SDS011;1213;43.206;27.922;2023-07-29T00:24:52;4.60;;;2.87;;
2404;SDS011;1213;43.206;27.922;2023-07-29T00:27:22;4.20;;;2.30;;
2404;SDS011;1213;43.206;27.922;2023-07-29T00:29:47;2.67;;;2.07;;
2404;SDS011;1213;43.206;27.922;2023-07-29T00:32:13;3.57;;;2.70;;
2404;SDS011;1213;43.206;27.922;2023-07-29T00:34:39;3.70;;;2.37;;
2404;SDS011;1213;43.206;27.922;2023-07-29T00:37:04;3.10;;;2.80;;
2404;SDS011;1213;43.206;27.922;2023-07-29T00:39:31;3.57;;;3.10;;
2404;SDS011;1213;43.206;27.922;2023-07-29T00:41:57;5.40;;;3.40;;
2404;SDS011;1213;43.206;27.922;2023-07-29T00:44:22;6.50;;;2.37;;
2404;SDS011;1213;43.206;27.922;2023-07-29T00:46:49;3.70;;;2.87;;
2404;SDS011;1213;43.206;27.922;2023-07-29T00:49:17;3.60;;;2.90;;
2404;SDS011;1213;43.206;27.922;2023-07-29T00:51:42;4.00;;;3.60;;
2404;SDS011;1213;43.206;27.922;2023-07-29T00:54:08;4.80;;;3.90;;
2404;SDS011;1213;43.206;27.922;2023-07-29T00:56:34;4.17;;;3.40;;
2404;SDS011;1213;43.206;27.922;2023-07-29T00:58:59;4.90;;;4.20;;
2404;SDS011;1213;43.206;27.922;2023-07-29T01:01:27;4.90;;;4.40;;
2404;SDS011;1213;43.206;27.922;2023-07-29T01:03:53;4.30;;;3.73;;
2404;SDS011;1213;43.206;27.922;2023-07-29T01:08:51;4.23;;;3.83;;
2404;SDS011;1213;43.206;27.922;2023-07-29T01:14:29;4.17;;;3.87;;
2404;SDS011;1213;43.206;27.922;2023-07-29T01:17:13;5.60;;;4.03;;
2404;SDS011;1213;43.206;27.922;2023-07-29T01:22:35;7.90;;;4.80;;
2404;SDS011;1213;43.206;27.922;2023-07-29T01:25:02;8.97;;;4.53;;
2404;SDS011;1213;43.206;27.922;2023-07-29T01:27:28;8.67;;;4.80;;
2404;SDS011;1213;43.206;27.922;2023-07-29T01:29:55;9.40;;;4.13;;
2404;SDS011;1213;43.206;27.922;2023-07-29T01:33:06;9.47;;;5.20;;
2404;SDS011;1213;43.206;27.922;2023-07-29T01:35:31;6.60;;;3.60;;
2404;SDS011;1213;43.206;27.922;2023-07-29T01:38:09;9.93;;;4.60;;
2404;SDS011;1213;43.206;27.922;2023-07-29T01:40:39;7.00;;;4.53;;
2404;SDS011;1213;43.206;27.922;2023-07-29T01:43:05;18.03;;;5.60;;
2404;SDS011;1213;43.206;27.922;2023-07-29T01:45:33;5.33;;;3.97;;
2404;SDS011;1213;43.206;27.922;2023-07-29T01:48:03;5.40;;;4.33;;
2404;SDS011;1213;43.206;27.922;2023-07-29T01:50:29;9.70;;;4.20;;
2404;SDS011;1213;43.206;27.922;2023-07-29T01:52:57;12.67;;;4.20;;
2404;SDS011;1213;43.206;27.922;2023-07-29T01:55:22;4.97;;;4.00;;
2404;SDS011;1213;43.206;27.922;2023-07-29T01:57:48;4.90;;;4.10;;
2404;SDS011;1213;43.206;27.922;2023-07-29T02:00:13;6.30;;;3.40;;
2404;SDS011;1213;43.206;27.922;2023-07-29T02:02:39;9.13;;;3.90;;
2404;SDS011;1213;43.206;27.922;2023-07-29T02:05:05;6.80;;;4.90;;
2404;SDS011;1213;43.206;27.922;2023-07-29T02:07:30;6.37;;;3.83;;
2404;SDS011;1213;43.206;27.922;2023-07-29T02:09:56;7.00;;;4.43;;
2404;SDS011;1213;43.206;27.922;2023-07-29T02:12:21;4.07;;;3.60;;
2404;SDS011;1213;43.206;27.922;2023-07-29T02:14:47;10.57;;;4.50;;
2404;SDS011;1213;43.206;27.922;2023-07-29T02:17:12;6.43;;;4.33;;
2404;SDS011;1213;43.206;27.922;2023-07-29T02:19:38;6.07;;;4.40;;
2404;SDS011;1213;43.206;27.922;2023-07-29T02:22:03;4.70;;;4.20;;
2404;SDS011;1213;43.206;27.922;2023-07-29T02:24:29;8.30;;;4.77;;
2404;SDS011;1213;43.206;27.922;2023-07-29T02:26:54;5.73;;;4.10;;
2404;SDS011;1213;43.206;27.922;2023-07-29T02:29:20;13.30;;;4.57;;
2404;SDS011;1213;43.206;27.922;2023-07-29T02:31:46;7.23;;;4.07;;
2404;SDS011;1213;43.206;27.922;2023-07-29T02:34:12;6.93;;;4.10;;
2404;SDS011;1213;43.206;27.922;2023-07-29T02:36:38;11.57;;;4.17;;
2404;SDS011;1213;43.206;27.922;2023-07-29T02:39:04;5.03;;;3.83;;
2404;SDS011;1213;43.206;27.922;2023-07-29T02:41:31;10.13;;;4.17;;
2404;SDS011;1213;43.206;27.922;2023-07-29T02:43:56;7.00;;;3.67;;
2404;SDS011;1213;43.206;27.922;2023-07-29T02:46:22;6.33;;;4.07;;
2404;SDS011;1213;43.206;27.922;2023-07-29T02:48:47;6.80;;;3.80;;
2404;SDS011;1213;43.206;27.922;2023-07-29T02:51:13;4.93;;;4.47;;
2404;SDS011;1213;43.206;27.922;2023-07-29T02:53:38;4.57;;;3.67;;
2404;SDS011;1213;43.206;27.922;2023-07-29T02:56:04;11.70;;;4.13;;
2404;SDS011;1213;43.206;27.922;2023-07-29T02:58:31;5.20;;;3.43;;
2404;SDS011;1213;43.206;27.922;2023-07-29T03:01:03;6.70;;;3.70;;
2404;SDS011;1213;43.206;27.922;2023-07-29T03:03:30;6.50;;;4.10;;
2404;SDS011;1213;43.206;27.922;2023-07-29T03:06:03;13.43;;;4.83;;
2404;SDS011;1213;43.206;27.922;2023-07-29T03:08:29;10.00;;;3.60;;
2404;SDS011;1213;43.206;27.922;2023-07-29T03:10:55;8.57;;;3.83;;
2404;SDS011;1213;43.206;27.922;2023-07-29T03:13:21;6.00;;;4.30;;
2404;SDS011;1213;43.206;27.922;2023-07-29T03:15:47;4.60;;;3.73;;
2404;SDS011;1213;43.206;27.922;2023-07-29T03:18:12;11.40;;;3.77;;
2404;SDS011;1213;43.206;27.922;2023-07-29T03:20:38;4.50;;;4.10;;
2404;SDS011;1213;43.206;27.922;2023-07-29T03:23:03;5.90;;;5.23;;
2404;SDS011;1213;43.206;27.922;2023-07-29T03:25:29;3.73;;;3.20;;
2404;SDS011;1213;43.206;27.922;2023-07-29T03:27:54;9.73;;;4.17;;
2404;SDS011;1213;43.206;27.922;2023-07-29T03:30:20;4.10;;;3.70;;
2404;SDS011;1213;43.206;27.922;2023-07-29T03:32:47;4.57;;;4.17;;
2404;SDS011;1213;43.206;27.922;2023-07-29T03:35:12;4.67;;;4.10;;
2404;SDS011;1213;43.206;27.922;2023-07-29T03:37:38;4.80;;;4.27;;
2404;SDS011;1213;43.206;27.922;2023-07-29T03:40:05;9.03;;;4.47;;
2404;SDS011;1213;43.206;27.922;2023-07-29T03:42:31;4.13;;;3.53;;
2404;SDS011;1213;43.206;27.922;2023-07-29T03:44:56;10.53;;;3.97;;
2404;SDS011;1213;43.206;27.922;2023-07-29T03:47:22;4.47;;;4.07;;
2404;SDS011;1213;43.206;27.922;2023-07-29T03:49:47;3.70;;;3.27;;
2404;SDS011;1213;43.206;27.922;2023-07-29T03:52:13;5.03;;;4.07;;
2404;SDS011;1213;43.206;27.922;2023-07-29T03:54:38;5.90;;;4.10;;
2404;SDS011;1213;43.206;27.922;2023-07-29T03:57:04;3.67;;;3.37;;
2404;SDS011;1213;43.206;27.922;2023-07-29T03:59:29;9.03;;;3.87;;
2404;SDS011;1213;43.206;27.922;2023-07-29T04:01:55;4.73;;;4.30;;
2404;SDS011;1213;43.206;27.922;2023-07-29T04:04:20;8.17;;;5.07;;
2404;SDS011;1213;43.206;27.922;2023-07-29T04:06:46;4.80;;;4.30;;
2404;SDS011;1213;43.206;27.922;2023-07-29T04:09:11;10.73;;;4.83;;
2404;SDS011;1213;43.206;27.922;2023-07-29T04:11:37;4.57;;;4.17;;
2404;SDS011;1213;43.206;27.922;2023-07-29T04:14:02;4.43;;;3.97;;
2404;SDS011;1213;43.206;27.922;2023-07-29T04:16:28;5.70;;;3.93;;
2404;SDS011;1213;43.206;27.922;2023-07-29T04:18:54;5.50;;;3.90;;
2404;SDS011;1213;43.206;27.922;2023-07-29T04:21:19;5.70;;;4.17;;
2404;SDS011;1213;43.206;27.922;2023-07-29T04:23:45;7.60;;;4.30;;
2404;SDS011;1213;43.206;27.922;2023-07-29T04:26:10;5.37;;;3.80;;
2404;SDS011;1213;43.206;27.922;2023-07-29T04:28:36;4.60;;;3.97;;
2404;SDS011;1213;43.206;27.922;2023-07-29T04:31:01;8.03;;;4.17;;
2404;SDS011;1213;43.206;27.922;2023-07-29T04:33:28;5.00;;;4.37;;
2404;SDS011;1213;43.206;27.922;2023-07-29T04:35:54;9.40;;;5.00;;
2404;SDS011;1213;43.206;27.922;2023-07-29T04:38:20;9.10;;;5.87;;
2404;SDS011;1213;43.206;27.922;2023-07-29T04:40:45;19.67;;;11.07;;
2404;SDS011;1213;43.206;27.922;2023-07-29T04:43:11;21.00;;;14.93;;
2404;SDS011;1213;43.206;27.922;2023-07-29T04:45:41;22.27;;;16.23;;
2404;SDS011;1213;43.206;27.922;2023-07-29T04:48:07;20.33;;;15.27;;
2404;SDS011;1213;43.206;27.922;2023-07-29T04:50:33;29.23;;;17.90;;
2404;SDS011;1213;43.206;27.922;2023-07-29T04:52:58;26.60;;;15.90;;
2404;SDS011;1213;43.206;27.922;2023-07-29T04:55:24;34.37;;;20.13;;
2404;SDS011;1213;43.206;27.922;2023-07-29T04:57:49;27.67;;;18.90;;
2404;SDS011;1213;43.206;27.922;2023-07-29T05:00:15;29.97;;;21.30;;
2404;SDS011;1213;43.206;27.922;2023-07-29T05:02:41;38.97;;;24.27;;
2404;SDS011;1213;43.206;27.922;2023-07-29T05:05:06;36.83;;;23.43;;
2404;SDS011;1213;43.206;27.922;2023-07-29T05:07:33;29.20;;;19.43;;
2404;SDS011;1213;43.206;27.922;2023-07-29T05:09:58;29.53;;;18.07;;
2404;SDS011;1213;43.206;27.922;2023-07-29T05:12:24;30.00;;;19.30;;
2404;SDS011;1213;43.206;27.922;2023-07-29T05:14:49;25.70;;;19.77;;
2404;SDS011;1213;43.206;27.922;2023-07-29T05:17:15;23.43;;;18.17;;
2404;SDS011;1213;43.206;27.922;2023-07-29T05:19:40;22.17;;;16.50;;
2404;SDS011;1213;43.206;27.922;2023-07-29T05:22:06;20.40;;;15.40;;
2404;SDS011;1213;43.206;27.922;2023-07-29T05:24:31;20.97;;;16.20;;
2404;SDS011;1213;43.206;27.922;2023-07-29T05:26:56;22.37;;;16.40;;
2404;SDS011;1213;43.206;27.922;2023-07-29T05:29:22;19.53;;;15.17;;
2404;SDS011;1213;43.206;27.922;2023-07-29T05:31:47;19.40;;;13.80;;
2404;SDS011;1213;43.206;27.922;2023-07-29T05:34:13;26.83;;;14.20;;
2404;SDS011;1213;43.206;27.922;2023-07-29T05:36:38;23.70;;;14.20;;
2404;SDS011;1213;43.206;27.922;2023-07-29T05:39:04;16.63;;;13.03;;
2404;SDS011;1213;43.206;27.922;2023-07-29T05:41:31;14.13;;;11.00;;
2404;SDS011;1213;43.206;27.922;2023-07-29T05:43:56;21.63;;;13.40;;
2404;SDS011;1213;43.206;27.922;2023-07-29T05:46:22;16.67;;;11.67;;
2404;SDS011;1213;43.206;27.922;2023-07-29T05:48:47;13.70;;;11.17;;
2404;SDS011;1213;43.206;27.922;2023-07-29T05:51:13;14.20;;;10.53;;
2404;SDS011;1213;43.206;27.922;2023-07-29T05:53:38;15.47;;;10.93;;
2404;SDS011;1213;43.206;27.922;2023-07-29T05:56:04;11.10;;;9.80;;
2404;SDS011;1213;43.206;27.922;2023-07-29T05:58:29;16.67;;;10.67;;
2404;SDS011;1213;43.206;27.922;2023-07-29T06:00:56;11.20;;;9.90;;
2404;SDS011;1213;43.206;27.922;2023-07-29T06:03:22;11.83;;;8.83;;
2404;SDS011;1213;43.206;27.922;2023-07-29T06:05:48;11.23;;;6.80;;
2404;SDS011;1213;43.206;27.922;2023-07-29T06:08:14;6.57;;;5.87;;
2404;SDS011;1213;43.206;27.922;2023-07-29T06:10:39;7.30;;;6.43;;
2404;SDS011;1213;43.206;27.922;2023-07-29T06:13:04;9.27;;;5.23;;
2404;SDS011;1213;43.206;27.922;2023-07-29T06:15:31;9.37;;;5.90;;
2404;SDS011;1213;43.206;27.922;2023-07-29T06:17:56;9.27;;;7.07;;
2404;SDS011;1213;43.206;27.922;2023-07-29T06:20:22;10.33;;;8.37;;
2404;SDS011;1213;43.206;27.922;2023-07-29T06:22:47;14.20;;;9.50;;
2404;SDS011;1213;43.206;27.922;2023-07-29T06:25:13;13.50;;;8.03;;
2404;SDS011;1213;43.206;27.922;2023-07-29T06:27:38;8.70;;;7.90;;
2404;SDS011;1213;43.206;27.922;2023-07-29T06:30:04;14.93;;;9.87;;
2404;SDS011;1213;43.206;27.922;2023-07-29T06:32:30;10.70;;;9.50;;
2404;SDS011;1213;43.206;27.922;2023-07-29T06:34:56;11.87;;;8.67;;
2404;SDS011;1213;43.206;27.922;2023-07-29T06:37:21;11.93;;;7.97;;
2404;SDS011;1213;43.206;27.922;2023-07-29T06:39:47;8.83;;;7.00;;
2404;SDS011;1213;43.206;27.922;2023-07-29T06:42:12;6.93;;;6.00;;
2404;SDS011;1213;43.206;27.922;2023-07-29T06:44:38;9.77;;;6.03;;
2404;SDS011;1213;43.206;27.922;2023-07-29T06:47:04;6.50;;;5.40;;
2404;SDS011;1213;43.206;27.922;2023-07-29T06:49:30;7.70;;;4.93;;
2404;SDS011;1213;43.206;27.922;2023-07-29T06:51:56;12.53;;;5.57;;
2404;SDS011;1213;43.206;27.922;2023-07-29T06:54:24;7.97;;;3.90;;
2404;SDS011;1213;43.206;27.922;2023-07-29T06:56:51;7.00;;;4.20;;
2404;SDS011;1213;43.206;27.922;2023-07-29T06:59:17;4.67;;;4.27;;
2404;SDS011;1213;43.206;27.922;2023-07-29T07:01:42;5.57;;;4.10;;
2404;SDS011;1213;43.206;27.922;2023-07-29T07:04:07;4.77;;;4.23;;
2404;SDS011;1213;43.206;27.922;2023-07-29T07:06:33;5.30;;;4.80;;
2404;SDS011;1213;43.206;27.922;2023-07-29T07:08:58;7.87;;;5.30;;
2404;SDS011;1213;43.206;27.922;2023-07-29T07:11:24;6.07;;;5.13;;
2404;SDS011;1213;43.206;27.922;2023-07-29T07:13:49;12.93;;;5.13;;
2404;SDS011;1213;43.206;27.922;2023-07-29T07:16:14;6.40;;;4.77;;
2404;SDS011;1213;43.206;27.922;2023-07-29T07:18:40;5.37;;;4.67;;
2404;SDS011;1213;43.206;27.922;2023-07-29T07:21:06;5.67;;;5.00;;
2404;SDS011;1213;43.206;27.922;2023-07-29T07:23:31;6.27;;;4.30;;
2404;SDS011;1213;43.206;27.922;2023-07-29T07:25:57;4.17;;;3.80;;
2404;SDS011;1213;43.206;27.922;2023-07-29T07:28:22;6.27;;;4.70;;
2404;SDS011;1213;43.206;27.922;2023-07-29T07:30:48;5.13;;;4.53;;
2404;SDS011;1213;43.206;27.922;2023-07-29T07:33:13;4.80;;;4.10;;
2404;SDS011;1213;43.206;27.922;2023-07-29T07:35:38;3.73;;;3.40;;
2404;SDS011;1213;43.206;27.922;2023-07-29T07:38:04;4.10;;;3.80;;
2404;SDS011;1213;43.206;27.922;2023-07-29T07:40:32;10.27;;;4.13;;
2404;SDS011;1213;43.206;27.922;2023-07-29T07:42:58;5.20;;;4.20;;
2404;SDS011;1213;43.206;27.922;2023-07-29T07:45:23;6.80;;;4.03;;
2404;SDS011;1213;43.206;27.922;2023-07-29T07:47:51;4.33;;;3.70;;
2404;SDS011;1213;43.206;27.922;2023-07-29T07:50:17;7.30;;;5.43;;
2404;SDS011;1213;43.206;27.922;2023-07-29T07:52:42;5.50;;;5.00;;
2404;SDS011;1213;43.206;27.922;2023-07-29T07:55:07;8.40;;;6.40;;
2404;SDS011;1213;43.206;27.922;2023-07-29T07:57:33;4.83;;;3.90;;
2404;SDS011;1213;43.206;27.922;2023-07-29T07:59:58;9.33;;;4.57;;
2404;SDS011;1213;43.206;27.922;2023-07-29T08:02:24;6.53;;;4.00;;
2404;SDS011;1213;43.206;27.922;2023-07-29T08:04:49;5.40;;;3.20;;
2404;SDS011;1213;43.206;27.922;2023-07-29T08:07:15;3.43;;;3.13;;
2404;SDS011;1213;43.206;27.922;2023-07-29T08:09:40;2.77;;;2.57;;
2404;SDS011;1213;43.206;27.922;2023-07-29T08:12:06;2.30;;;1.93;;
2404;SDS011;1213;43.206;27.922;2023-07-29T08:14:31;3.10;;;2.10;;
2404;SDS011;1213;43.206;27.922;2023-07-29T08:16:59;2.80;;;1.73;;
2404;SDS011;1213;43.206;27.922;2023-07-29T08:19:24;3.23;;;2.90;;
2404;SDS011;1213;43.206;27.922;2023-07-29T08:21:50;6.83;;;3.43;;
2404;SDS011;1213;43.206;27.922;2023-07-29T08:24:15;6.13;;;3.57;;
2404;SDS011;1213;43.206;27.922;2023-07-29T08:26:40;3.70;;;3.40;;
2404;SDS011;1213;43.206;27.922;2023-07-29T08:29:06;3.90;;;3.30;;
2404;SDS011;1213;43.206;27.922;2023-07-29T08:31:31;5.27;;;3.83;;
2404;SDS011;1213;43.206;27.922;2023-07-29T08:33:59;4.57;;;4.13;;
2404;SDS011;1213;43.206;27.922;2023-07-29T08:36:25;8.07;;;4.00;;
2404;SDS011;1213;43.206;27.922;2023-07-29T08:38:50;6.60;;;3.80;;
2404;SDS011;1213;43.206;27.922;2023-07-29T08:41:16;4.70;;;4.30;;
2404;SDS011;1213;43.206;27.922;2023-07-29T08:44:06;3.63;;;3.00;;
2404;SDS011;1213;43.206;27.922;2023-07-29T08:46:37;5.70;;;4.00;;
2404;SDS011;1213;43.206;27.922;2023-07-29T08:49:03;3.10;;;2.90;;
2404;SDS011;1213;43.206;27.922;2023-07-29T08:51:29;5.73;;;3.60;;
2404;SDS011;1213;43.206;27.922;2023-07-29T08:53:57;6.80;;;3.27;;
2404;SDS011;1213;43.206;27.922;2023-07-29T08:56:24;4.43;;;4.10;;
2404;SDS011;1213;43.206;27.922;2023-07-29T08:58:49;5.40;;;3.80;;
2404;SDS011;1213;43.206;27.922;2023-07-29T09:01:15;3.90;;;3.23;;
2404;SDS011;1213;43.206;27.922;2023-07-29T09:03:41;3.70;;;2.60;;
2404;SDS011;1213;43.206;27.922;2023-07-29T09:06:06;3.17;;;2.97;;
2404;SDS011;1213;43.206;27.922;2023-07-29T09:08:33;2.90;;;2.70;;
2404;SDS011;1213;43.206;27.922;2023-07-29T09:10:59;3.70;;;3.40;;
2404;SDS011;1213;43.206;27.922;2023-07-29T09:13:25;3.73;;;2.57;;
2404;SDS011;1213;43.206;27.922;2023-07-29T09:15:53;4.73;;;3.10;;
2404;SDS011;1213;43.206;27.922;2023-07-29T09:18:20;4.90;;;3.17;;
2404;SDS011;1213;43.206;27.922;2023-07-29T09:20:47;4.00;;;3.17;;
2404;SDS011;1213;43.206;27.922;2023-07-29T09:23:13;3.20;;;2.90;;
2404;SDS011;1213;43.206;27.922;2023-07-29T09:25:39;2.63;;;2.43;;
2404;SDS011;1213;43.206;27.922;2023-07-29T09:28:09;8.93;;;3.30;;
2404;SDS011;1213;43.206;27.922;2023-07-29T09:30:36;4.33;;;2.90;;
2404;SDS011;1213;43.206;27.922;2023-07-29T09:33:05;3.10;;;2.80;;
2404;SDS011;1213;43.206;27.922;2023-07-29T09:35:32;3.07;;;2.77;;
2404;SDS011;1213;43.206;27.922;2023-07-29T09:38:00;3.53;;;3.07;;
2404;SDS011;1213;43.206;27.922;2023-07-29T09:40:26;2.07;;;1.97;;
2404;SDS011;1213;43.206;27.922;2023-07-29T09:42:52;3.83;;;2.67;;
2404;SDS011;1213;43.206;27.922;2023-07-29T09:45:24;3.00;;;2.07;;
2404;SDS011;1213;43.206;27.922;2023-07-29T09:47:52;2.17;;;1.97;;
2404;SDS011;1213;43.206;27.922;2023-07-29T09:50:18;3.83;;;2.77;;
2404;SDS011;1213;43.206;27.922;2023-07-29T09:52:44;2.13;;;1.93;;
2404;SDS011;1213;43.206;27.922;2023-07-29T09:55:11;2.60;;;2.40;;
2404;SDS011;1213;43.206;27.922;2023-07-29T09:57:39;5.43;;;3.00;;
2404;SDS011;1213;43.206;27.922;2023-07-29T10:00:05;4.57;;;2.67;;
2404;SDS011;1213;43.206;27.922;2023-07-29T10:02:36;5.00;;;2.70;;
2404;SDS011;1213;43.206;27.922;2023-07-29T10:05:02;6.47;;;3.40;;
2404;SDS011;1213;43.206;27.922;2023-07-29T10:07:29;5.80;;;2.27;;
2404;SDS011;1213;43.206;27.922;2023-07-29T10:09:55;2.80;;;2.60;;
2404;SDS011;1213;43.206;27.922;2023-07-29T10:12:22;2.70;;;2.27;;
2404;SDS011;1213;43.206;27.922;2023-07-29T10:14:49;2.17;;;2.00;;
2404;SDS011;1213;43.206;27.922;2023-07-29T10:17:16;4.87;;;2.80;;
2404;SDS011;1213;43.206;27.922;2023-07-29T10:19:41;3.50;;;2.77;;
2404;SDS011;1213;43.206;27.922;2023-07-29T10:22:10;2.93;;;2.73;;
2404;SDS011;1213;43.206;27.922;2023-07-29T10:24:39;5.03;;;3.00;;
2404;SDS011;1213;43.206;27.922;2023-07-29T10:27:09;2.70;;;2.50;;
2404;SDS011;1213;43.206;27.922;2023-07-29T10:29:40;3.63;;;3.23;;
2404;SDS011;1213;43.206;27.922;2023-07-29T10:32:08;3.40;;;3.20;;
2404;SDS011;1213;43.206;27.922;2023-07-29T10:34:36;7.23;;;4.27;;
2404;SDS011;1213;43.206;27.922;2023-07-29T10:37:03;3.50;;;3.20;;
2404;SDS011;1213;43.206;27.922;2023-07-29T10:39:37;5.13;;;2.93;;
2404;SDS011;1213;43.206;27.922;2023-07-29T10:42:05;3.40;;;3.10;;
2404;SDS011;1213;43.206;27.922;2023-07-29T10:47:27;2.90;;;2.70;;
2404;SDS011;1213;43.206;27.922;2023-07-29T10:49:58;4.60;;;3.60;;
2404;SDS011;1213;43.206;27.922;2023-07-29T10:55:02;6.57;;;3.67;;
2404;SDS011;1213;43.206;27.922;2023-07-29T10:59:57;4.43;;;3.20;;
2404;SDS011;1213;43.206;27.922;2023-07-29T11:02:30;3.17;;;2.93;;
2404;SDS011;1213;43.206;27.922;2023-07-29T11:05:15;4.00;;;3.60;;
2404;SDS011;1213;43.206;27.922;2023-07-29T11:07:46;6.03;;;3.20;;
2404;SDS011;1213;43.206;27.922;2023-07-29T11:10:13;3.23;;;3.03;;
2404;SDS011;1213;43.206;27.922;2023-07-29T11:12:40;2.90;;;2.60;;
2404;SDS011;1213;43.206;27.922;2023-07-29T11:15:15;4.50;;;3.00;;
2404;SDS011;1213;43.206;27.922;2023-07-29T11:20:09;3.07;;;2.77;;
2404;SDS011;1213;43.206;27.922;2023-07-29T11:22:35;3.60;;;3.30;;
2404;SDS011;1213;43.206;27.922;2023-07-29T11:25:02;3.53;;;3.20;;
2404;SDS011;1213;43.206;27.922;2023-07-29T11:27:28;3.50;;;3.30;;
2404;SDS011;1213;43.206;27.922;2023-07-29T11:30:00;3.90;;;3.30;;
2404;SDS011;1213;43.206;27.922;2023-07-29T11:32:27;5.43;;;3.67;;
2404;SDS011;1213;43.206;27.922;2023-07-29T11:34:53;6.37;;;3.90;;
2404;SDS011;1213;43.206;27.922;2023-07-29T11:37:18;5.67;;;3.80;;
2404;SDS011;1213;43.206;27.922;2023-07-29T11:39:46;5.50;;;4.47;;
2404;SDS011;1213;43.206;27.922;2023-07-29T11:42:11;2.87;;;2.63;;
2404;SDS011;1213;43.206;27.922;2023-07-29T11:44:38;2.73;;;2.47;;
2404;SDS011;1213;43.206;27.922;2023-07-29T11:47:10;3.27;;;2.80;;
2404;SDS011;1213;43.206;27.922;2023-07-29T11:49:38;3.20;;;2.93;;
2404;SDS011;1213;43.206;27.922;2023-07-29T11:52:05;2.90;;;2.70;;
2404;SDS011;1213;43.206;27.922;2023-07-29T11:54:32;3.33;;;3.03;;
2404;SDS011;1213;43.206;27.922;2023-07-29T11:56:59;2.90;;;2.70;;
2404;SDS011;1213;43.206;27.922;2023-07-29T11:59:25;2.97;;;2.77;;
2404;SDS011;1213;43.206;27.922;2023-07-29T12:01:52;3.93;;;3.50;;
2404;SDS011;1213;43.206;27.922;2023-07-29T12:04:18;3.87;;;2.90;;
2404;SDS011;1213;43.206;27.922;2023-07-29T12:06:44;3.13;;;2.93;;
2404;SDS011;1213;43.206;27.922;2023-07-29T12:09:09;5.00;;;2.83;;
2404;SDS011;1213;43.206;27.922;2023-07-29T12:11:35;3.10;;;2.60;;
2404;SDS011;1213;43.206;27.922;2023-07-29T12:14:01;4.50;;;3.90;;
2404;SDS011;1213;43.206;27.922;2023-07-29T12:16:26;3.50;;;3.20;;
2404;SDS011;1213;43.206;27.922;2023-07-29T12:18:52;7.13;;;4.43;;
2404;SDS011;1213;43.206;27.922;2023-07-29T12:21:20;4.33;;;3.93;;
2404;SDS011;1213;43.206;27.922;2023-07-29T12:23:46;2.83;;;2.63;;
2404;SDS011;1213;43.206;27.922;2023-07-29T12:26:11;2.93;;;2.77;;
2404;SDS011;1213;43.206;27.922;2023-07-29T12:28:37;3.80;;;2.80;;
2404;SDS011;1213;43.206;27.922;2023-07-29T12:31:06;3.17;;;2.87;;
2404;SDS011;1213;43.206;27.922;2023-07-29T12:33:36;3.70;;;3.40;;
2404;SDS011;1213;43.206;27.922;2023-07-29T12:36:07;3.13;;;2.93;;
2404;SDS011;1213;43.206;27.922;2023-07-29T12:38:33;3.37;;;2.97;;
2404;SDS011;1213;43.206;27.922;2023-07-29T12:40:58;4.13;;;2.80;;
2404;SDS011;1213;43.206;27.922;2023-07-29T12:43:24;5.00;;;2.73;;
2404;SDS011;1213;43.206;27.922;2023-07-29T12:45:50;3.30;;;2.97;;
2404;SDS011;1213;43.206;27.922;2023-07-29T12:48:16;10.10;;;3.10;;
2404;SDS011;1213;43.206;27.922;2023-07-29T12:50:41;3.03;;;2.83;;
2404;SDS011;1213;43.206;27.922;2023-07-29T12:53:07;2.90;;;2.70;;
2404;SDS011;1213;43.206;27.922;2023-07-29T12:55:36;2.93;;;2.70;;
2404;SDS011;1213;43.206;27.922;2023-07-29T12:58:02;5.07;;;2.50;;
2404;SDS011;1213;43.206;27.922;2023-07-29T13:00:28;3.40;;;2.80;;
2404;SDS011;1213;43.206;27.922;2023-07-29T13:02:54;4.07;;;2.67;;
2404;SDS011;1213;43.206;27.922;2023-07-29T13:05:19;3.00;;;2.50;;
2404;SDS011;1213;43.206;27.922;2023-07-29T13:07:45;3.50;;;2.67;;
2404;SDS011;1213;43.206;27.922;2023-07-29T13:10:11;8.73;;;2.30;;
2404;SDS011;1213;43.206;27.922;2023-07-29T13:12:37;2.50;;;2.30;;
2404;SDS011;1213;43.206;27.922;2023-07-29T13:15:03;2.63;;;2.43;;
2404;SDS011;1213;43.206;27.922;2023-07-29T13:17:29;3.17;;;2.73;;
2404;SDS011;1213;43.206;27.922;2023-07-29T13:19:55;2.60;;;2.40;;
2404;SDS011;1213;43.206;27.922;2023-07-29T13:22:21;2.90;;;2.70;;
2404;SDS011;1213;43.206;27.922;2023-07-29T13:24:46;3.17;;;2.83;;
2404;SDS011;1213;43.206;27.922;2023-07-29T13:27:12;2.90;;;2.50;;
2404;SDS011;1213;43.206;27.922;2023-07-29T13:29:37;2.83;;;2.53;;
2404;SDS011;1213;43.206;27.922;2023-07-29T13:32:03;7.50;;;3.77;;
2404;SDS011;1213;43.206;27.922;2023-07-29T13:34:28;2.73;;;2.53;;
2404;SDS011;1213;43.206;27.922;2023-07-29T13:36:54;5.20;;;2.67;;
2404;SDS011;1213;43.206;27.922;2023-07-29T13:39:19;4.77;;;2.93;;
2404;SDS011;1213;43.206;27.922;2023-07-29T13:41:44;2.80;;;2.60;;
2404;SDS011;1213;43.206;27.922;2023-07-29T13:44:10;3.00;;;2.80;;
2404;SDS011;1213;43.206;27.922;2023-07-29T13:46:35;2.40;;;2.20;;
2404;SDS011;1213;43.206;27.922;2023-07-29T13:49:01;2.57;;;2.37;;
2404;SDS011;1213;43.206;27.922;2023-07-29T13:51:28;3.53;;;3.23;;
2404;SDS011;1213;43.206;27.922;2023-07-29T13:53:53;6.33;;;2.50;;
2404;SDS011;1213;43.206;27.922;2023-07-29T13:56:19;4.10;;;2.93;;
2404;SDS011;1213;43.206;27.922;2023-07-29T13:58:44;5.50;;;2.47;;
2404;SDS011;1213;43.206;27.922;2023-07-29T14:01:09;3.17;;;2.13;;
2404;SDS011;1213;43.206;27.922;2023-07-29T14:03:35;4.70;;;2.50;;
2404;SDS011;1213;43.206;27.922;2023-07-29T14:06:00;2.50;;;1.73;;
2404;SDS011;1213;43.206;27.922;2023-07-29T14:08:26;2.53;;;2.33;;
2404;SDS011;1213;43.206;27.922;2023-07-29T14:10:51;6.20;;;2.37;;
2404;SDS011;1213;43.206;27.922;2023-07-29T14:13:16;3.30;;;2.57;;
2404;SDS011;1213;43.206;27.922;2023-07-29T14:15:42;2.80;;;2.60;;
2404;SDS011;1213;43.206;27.922;2023-07-29T14:18:07;2.87;;;2.20;;
2404;SDS011;1213;43.206;27.922;2023-07-29T14:20:33;3.10;;;2.27;;
2404;SDS011;1213;43.206;27.922;2023-07-29T14:22:58;2.07;;;1.93;;
2404;SDS011;1213;43.206;27.922;2023-07-29T14:25:24;4.93;;;2.60;;
2404;SDS011;1213;43.206;27.922;2023-07-29T14:27:50;2.40;;;2.20;;
2404;SDS011;1213;43.206;27.922;2023-07-29T14:30:15;4.03;;;2.40;;
2404;SDS011;1213;43.206;27.922;2023-07-29T14:32:41;2.50;;;2.30;;
2404;SDS011;1213;43.206;27.922;2023-07-29T14:35:06;3.33;;;2.63;;
2404;SDS011;1213;43.206;27.922;2023-07-29T14:37:33;2.73;;;2.53;;
2404;SDS011;1213;43.206;27.922;2023-07-29T14:39:59;3.70;;;2.40;;
2404;SDS011;1213;43.206;27.922;2023-07-29T14:42:26;3.63;;;2.13;;
2404;SDS011;1213;43.206;27.922;2023-07-29T14:44:52;3.07;;;2.70;;
2404;SDS011;1213;43.206;27.922;2023-07-29T14:47:17;3.70;;;2.70;;
2404;SDS011;1213;43.206;27.922;2023-07-29T14:49:43;4.63;;;2.70;;
2404;SDS011;1213;43.206;27.922;2023-07-29T14:52:09;2.53;;;2.33;;
2404;SDS011;1213;43.206;27.922;2023-07-29T14:54:35;2.63;;;2.00;;
2404;SDS011;1213;43.206;27.922;2023-07-29T14:57:00;2.47;;;2.20;;
2404;SDS011;1213;43.206;27.922;2023-07-29T14:59:25;4.30;;;2.30;;
2404;SDS011;1213;43.206;27.922;2023-07-29T15:01:51;3.00;;;2.17;;
2404;SDS011;1213;43.206;27.922;2023-07-29T15:04:16;2.80;;;2.60;;
2404;SDS011;1213;43.206;27.922;2023-07-29T15:06:42;6.07;;;2.50;;
2404;SDS011;1213;43.206;27.922;2023-07-29T15:09:07;4.87;;;2.50;;
2404;SDS011;1213;43.206;27.922;2023-07-29T15:11:33;2.30;;;1.77;;